createdAt,value
2023-02-14T00:01:10.073Z,46.90
2023-02-14T00:03:36.711Z,47.00
2023-02-14T00:06:12.177Z,47.00
2023-02-14T00:08:40.944Z,47.10
2023-02-14T00:11:09.021Z,47.10
2023-02-14T00:13:36.143Z,47.00
2023-02-14T00:16:03.618Z,47.10
2023-02-14T00:18:49.291Z,47.30
2023-02-14T00:21:15.916Z,47.40
2023-02-14T00:23:42.687Z,47.50
2023-02-14T00:26:15.934Z,47.60
2023-02-14T00:28:42.838Z,47.50
2023-02-14T00:31:09.746Z,47.40
2023-02-14T00:33:37.201Z,47.50
2023-02-14T00:36:05.475Z,47.60
2023-02-14T00:38:32.619Z,47.60
2023-02-14T00:41:00.164Z,47.60
2023-02-14T00:43:27.021Z,47.60
2023-02-14T00:45:53.881Z,47.60
2023-02-14T00:48:20.619Z,47.50
2023-02-14T00:50:47.369Z,47.50
2023-02-14T00:53:14.590Z,47.50
2023-02-14T00:55:41.242Z,47.50
2023-02-14T00:58:07.991Z,47.40
2023-02-14T01:00:34.792Z,47.50
2023-02-14T01:03:01.560Z,47.50
2023-02-14T01:05:28.315Z,47.70
2023-02-14T01:07:54.959Z,47.80
2023-02-14T01:10:21.696Z,47.80
2023-02-14T01:12:48.382Z,47.70
2023-02-14T01:15:15.054Z,47.80
2023-02-14T01:17:41.804Z,47.80
2023-02-14T01:20:09.494Z,47.80
2023-02-14T01:32:26.376Z,47.80
2023-02-14T01:34:53.155Z,48.00
2023-02-14T01:37:19.864Z,48.10
2023-02-14T01:39:46.483Z,48.10
2023-02-14T01:42:13.400Z,48.00
2023-02-14T01:44:40.066Z,48.00
2023-02-14T01:47:09.659Z,48.10
2023-02-14T01:49:41.159Z,48.10
2023-02-14T01:52:22.235Z,48.00
2023-02-14T01:54:55.777Z,48.10
2023-02-14T01:57:27.216Z,48.10
2023-02-14T02:00:17.591Z,48.10
2023-02-14T02:02:45.537Z,48.10
2023-02-14T02:07:40.302Z,48.20
2023-02-14T02:10:09.049Z,48.30
2023-02-14T02:12:36.209Z,48.30
2023-02-14T02:15:04.147Z,48.40
2023-02-14T02:17:58.658Z,48.30
2023-02-14T02:20:49.462Z,48.30
2023-02-14T02:26:09.282Z,48.30
2023-02-14T02:29:01.327Z,48.40
2023-02-14T02:31:55.825Z,48.50
2023-02-14T02:35:05.615Z,48.50
2023-02-14T02:37:57.372Z,48.40
2023-02-14T02:40:29.857Z,48.50
2023-02-14T02:43:22.672Z,48.50
2023-02-14T02:46:27.184Z,48.50
2023-02-14T02:49:42.805Z,48.60
2023-02-14T02:53:03.734Z,48.60
2023-02-14T02:56:31.007Z,48.70
2023-02-14T02:59:18.243Z,48.70
2023-02-14T03:01:51.719Z,48.60
2023-02-14T03:04:37.912Z,48.70
2023-02-14T03:07:25.554Z,48.80
2023-02-14T03:09:58.308Z,48.80
2023-02-14T03:12:34.034Z,48.90
2023-02-14T03:15:20.465Z,49.00
2023-02-14T03:18:30.628Z,48.90
2023-02-14T03:21:09.278Z,49.00
2023-02-14T03:23:53.963Z,49.00
2023-02-14T03:26:27.875Z,49.10
2023-02-14T03:29:19.555Z,49.20
2023-02-14T03:31:57.580Z,49.10
2023-02-14T03:34:43.701Z,49.00
2023-02-14T03:37:18.657Z,49.20
2023-02-14T03:40:04.250Z,49.10
2023-02-14T03:43:01.247Z,49.20
2023-02-14T03:45:35.039Z,49.80
2023-02-14T03:48:06.558Z,49.20
2023-02-14T03:50:36.592Z,49.20
2023-02-14T03:53:06.712Z,49.30
2023-02-14T03:55:46.364Z,49.40
2023-02-14T03:58:32.650Z,49.40
2023-02-14T04:01:06.376Z,49.50
2023-02-14T04:03:34.914Z,49.40
2023-02-14T04:06:01.739Z,49.50
2023-02-14T04:08:30.160Z,49.50
2023-02-14T04:11:00.545Z,49.50
2023-02-14T04:13:27.869Z,49.40
2023-02-14T04:15:54.794Z,49.40
2023-02-14T04:18:40.351Z,49.50
2023-02-14T04:21:07.039Z,49.40
2023-02-14T04:23:33.691Z,49.20
2023-02-14T04:26:00.432Z,49.30
2023-02-14T04:28:27.086Z,49.30
2023-02-14T04:30:53.872Z,49.40
2023-02-14T04:33:20.645Z,49.30
2023-02-14T04:35:48.637Z,49.20
2023-02-14T04:38:15.385Z,49.10
2023-02-14T04:40:42.051Z,49.20
2023-02-14T04:43:08.753Z,49.10
2023-02-14T04:45:35.535Z,49.10
2023-02-14T04:48:02.288Z,49.00
2023-02-14T04:50:28.974Z,49.00
2023-02-14T04:52:55.790Z,49.00
2023-02-14T04:55:22.505Z,48.90
2023-02-14T04:57:49.218Z,48.80
2023-02-14T05:00:16.252Z,48.90
2023-02-14T05:02:43.060Z,49.00
2023-02-14T05:05:10.367Z,49.10
2023-02-14T05:07:37.327Z,49.00
2023-02-14T05:10:06.264Z,49.00
2023-02-14T05:12:32.933Z,49.10
2023-02-14T05:14:59.636Z,49.20
2023-02-14T05:17:29.399Z,49.30
2023-02-14T05:19:56.134Z,49.20
2023-02-14T05:22:22.885Z,49.20
2023-02-14T05:24:49.515Z,49.20
2023-02-14T05:27:16.245Z,49.20
2023-02-14T05:29:43.034Z,49.20
2023-02-14T05:32:09.760Z,49.30
2023-02-14T05:34:36.483Z,49.20
2023-02-14T05:37:03.587Z,49.40
2023-02-14T05:39:30.297Z,49.00
2023-02-14T05:41:59.229Z,49.40
2023-02-14T05:44:26.062Z,49.50
2023-02-14T05:46:52.779Z,49.50
2023-02-14T05:49:19.460Z,49.60
2023-02-14T05:51:46.202Z,50.20
2023-02-14T05:54:13.030Z,49.80
2023-02-14T05:56:39.689Z,49.80
2023-02-14T05:59:06.416Z,49.80
2023-02-14T06:01:33.112Z,49.90
2023-02-14T06:03:59.925Z,50.00
2023-02-14T06:06:26.708Z,50.00
2023-02-14T06:08:54.507Z,49.90
2023-02-14T06:11:21.240Z,49.90
2023-02-14T06:13:47.937Z,50.00
2023-02-14T06:16:14.730Z,50.00
2023-02-14T06:18:41.509Z,50.10
2023-02-14T06:21:08.219Z,50.10
2023-02-14T06:23:34.982Z,50.20
2023-02-14T06:26:01.863Z,50.40
2023-02-14T06:28:28.735Z,50.60
2023-02-14T06:30:55.526Z,54.20
2023-02-14T06:33:22.299Z,59.90
2023-02-14T06:35:49.002Z,50.20
2023-02-14T06:38:15.646Z,50.70
2023-02-14T06:40:42.390Z,50.80
2023-02-14T06:43:09.106Z,50.80
2023-02-14T06:45:36.427Z,50.80
2023-02-14T06:48:04.296Z,50.70
2023-02-14T06:50:30.955Z,51.20
2023-02-14T06:52:57.697Z,50.60
2023-02-14T06:55:24.507Z,50.70
2023-02-14T06:57:51.202Z,50.70
2023-02-14T07:00:23.801Z,50.60
2023-02-14T07:02:50.439Z,50.70
2023-02-14T07:05:18.994Z,50.70
2023-02-14T07:07:46.229Z,50.60
2023-02-14T07:10:13.571Z,50.60
2023-02-14T07:12:40.603Z,50.60
2023-02-14T07:15:08.756Z,50.80
2023-02-14T07:17:35.819Z,50.80
2023-02-14T07:20:03.637Z,50.90
2023-02-14T07:22:30.553Z,51.00
2023-02-14T07:24:58.403Z,51.00
2023-02-14T07:27:25.303Z,51.00
2023-02-14T07:29:52.200Z,51.10
2023-02-14T07:32:19.126Z,51.20
2023-02-14T07:34:45.996Z,51.30
2023-02-14T07:37:12.690Z,51.30
2023-02-14T07:39:39.412Z,51.30
2023-02-14T07:42:06.468Z,51.40
2023-02-14T07:44:33.100Z,51.40
2023-02-14T07:46:59.759Z,51.60
2023-02-14T07:49:26.510Z,51.70
2023-02-14T07:51:53.430Z,51.70
2023-02-14T07:54:20.426Z,51.80
2023-02-14T07:56:47.242Z,51.90
2023-02-14T07:59:14.003Z,51.90
2023-02-14T08:01:40.809Z,52.10
2023-02-14T08:04:09.442Z,52.30
2023-02-14T08:06:36.151Z,52.40
2023-02-14T08:09:02.944Z,52.60
2023-02-14T08:11:48.332Z,52.80
2023-02-14T08:14:15.720Z,53.20
2023-02-14T08:16:42.516Z,53.40
2023-02-14T08:19:09.294Z,53.70
2023-02-14T08:21:36.046Z,53.90
2023-02-14T08:24:02.869Z,54.60
2023-02-14T08:26:29.588Z,55.20
2023-02-14T08:28:56.346Z,55.80
2023-02-14T08:31:36.852Z,57.30
2023-02-14T08:34:07.493Z,58.00
2023-02-14T08:36:34.903Z,59.40
2023-02-14T08:39:03.727Z,60.60
2023-02-14T08:41:30.567Z,61.70
2023-02-14T08:43:57.291Z,60.80
2023-02-14T08:46:24.374Z,61.50
2023-02-14T08:48:53.324Z,62.60
2023-02-14T08:53:50.777Z,62.20
2023-02-14T08:56:20.930Z,63.70
2023-02-14T08:58:47.701Z,64.40
2023-02-14T09:01:17.164Z,64.80
2023-02-14T09:03:45.163Z,65.40
2023-02-14T09:06:16.935Z,65.60
2023-02-14T09:08:45.669Z,65.70
2023-02-14T09:11:23.863Z,66.00
2023-02-14T09:13:53.257Z,66.70
2023-02-14T09:16:22.151Z,66.50
2023-02-14T09:18:50.593Z,67.60
2023-02-14T09:21:21.206Z,66.40
2023-02-14T09:23:48.319Z,66.70
2023-02-14T09:26:16.452Z,67.30
2023-02-14T09:28:43.657Z,67.70
2023-02-14T09:31:13.928Z,67.80
2023-02-14T09:33:41.119Z,67.90
2023-02-14T09:36:26.960Z,68.20
2023-02-14T09:38:53.697Z,68.30
2023-02-14T09:41:29.604Z,68.10
2023-02-14T09:44:03.992Z,68.30
2023-02-14T09:46:36.056Z,68.20
2023-02-14T09:49:03.066Z,67.70
2023-02-14T09:51:31.657Z,67.80
2023-02-14T09:54:09.308Z,67.70
2023-02-14T09:56:58.992Z,67.50
2023-02-14T09:59:25.740Z,67.70
2023-02-14T10:01:59.378Z,67.50
2023-02-14T10:04:58.161Z,67.40
2023-02-14T10:10:39.670Z,67.20
2023-02-14T10:13:15.744Z,66.90
2023-02-14T10:15:49.330Z,66.50
2023-02-14T10:18:29.965Z,66.10
2023-02-14T10:21:01.894Z,66.00
2023-02-14T10:23:42.435Z,65.80
2023-02-14T10:26:25.096Z,65.50
2023-02-14T10:28:54.199Z,65.50
2023-02-14T10:36:34.641Z,65.60
2023-02-14T10:39:31.652Z,65.00
2023-02-14T10:42:19.198Z,64.60
2023-02-14T10:44:58.793Z,64.40
2023-02-14T10:48:13.273Z,64.20
2023-02-14T10:50:59.927Z,63.80
2023-02-14T10:53:38.731Z,63.10
2023-02-14T10:56:22.652Z,62.80
2023-02-14T10:58:51.589Z,62.70
2023-02-14T11:24:30.409Z,62.30
2023-02-14T11:27:07.442Z,60.70
2023-02-14T11:29:54.771Z,60.30
2023-02-14T11:34:54.136Z,60.30
2023-02-14T11:37:23.571Z,59.80
2023-02-14T11:39:52.043Z,59.40
2023-02-14T11:42:42.538Z,59.30
2023-02-14T11:45:30.150Z,59.60
2023-02-14T11:48:22.327Z,59.50
2023-02-14T11:51:09.176Z,59.40
2023-02-14T11:53:55.937Z,58.40
2023-02-14T11:58:54.049Z,58.10
2023-02-14T12:01:25.559Z,57.50
2023-02-14T12:03:54.758Z,57.50
2023-02-14T12:06:28.785Z,57.10
2023-02-14T12:09:31.516Z,56.80
2023-02-14T12:12:01.293Z,57.30
2023-02-14T12:14:30.445Z,56.60
2023-02-14T12:17:34.085Z,55.80
2023-02-14T12:20:11.852Z,54.90
2023-02-14T12:25:24.969Z,54.50
2023-02-14T12:28:04.050Z,54.30
2023-02-14T12:30:33.895Z,53.90
2023-02-14T12:33:01.409Z,53.30
2023-02-14T12:35:40.091Z,53.30
2023-02-14T12:38:22.027Z,52.20
2023-02-14T13:07:29.097Z,54.50
2023-02-14T13:20:32.207Z,48.20
2023-02-14T13:23:29.966Z,46.20
2023-02-14T13:53:45.659Z,46.20
2023-02-14T13:56:13.322Z,44.70
2023-02-14T13:59:06.422Z,45.00
2023-02-14T14:01:42.900Z,45.40
2023-02-14T14:04:28.155Z,44.80
2023-02-14T14:07:03.879Z,44.30
2023-02-14T14:09:43.114Z,44.50
2023-02-14T14:12:28.354Z,45.20
2023-02-14T14:23:34.025Z,44.90
2023-02-14T14:26:01.331Z,44.20
2023-02-14T14:28:32.009Z,44.60
2023-02-14T14:30:59.340Z,44.00
2023-02-14T14:33:26.072Z,44.20
2023-02-14T14:36:11.771Z,44.70
2023-02-14T14:38:49.946Z,43.90
2023-02-14T14:41:18.298Z,43.60
2023-02-14T14:43:45.167Z,44.00
2023-02-14T14:46:14.306Z,44.50
2023-02-14T14:48:50.768Z,42.20
2023-02-14T14:51:30.447Z,41.20
2023-02-14T14:53:57.134Z,41.40
2023-02-14T15:06:44.007Z,41.50
2023-02-14T15:09:31.741Z,43.00
2023-02-14T15:12:21.513Z,43.20
2023-02-14T15:14:54.577Z,42.30
2023-02-14T15:17:26.628Z,42.10
2023-02-14T15:22:37.390Z,42.30
2023-02-14T15:25:21.082Z,43.10
2023-02-14T15:27:48.412Z,43.00
2023-02-14T15:33:06.556Z,42.90
2023-02-14T15:35:36.839Z,42.30
2023-02-14T15:43:17.927Z,41.80
2023-02-14T15:45:47.515Z,42.40
2023-02-14T15:48:24.129Z,41.60
2023-02-14T15:50:53.320Z,40.90
2023-02-14T15:53:20.005Z,41.90
2023-02-14T15:55:49.697Z,41.80
2023-02-14T15:58:26.755Z,41.00
2023-02-14T16:00:54.293Z,41.40
2023-02-14T16:03:24.169Z,41.20
2023-02-14T16:05:51.707Z,41.30
2023-02-14T16:08:41.736Z,40.70
2023-02-14T16:11:27.219Z,41.60
2023-02-14T16:13:54.501Z,41.60
2023-02-14T16:16:21.704Z,41.70
2023-02-14T16:18:52.106Z,41.40
2023-02-14T16:21:33.220Z,42.00
2023-02-14T16:24:06.696Z,41.90
2023-02-14T16:26:34.963Z,41.80
2023-02-14T16:29:10.774Z,41.90
2023-02-14T16:32:17.713Z,41.80
2023-02-14T16:34:47.251Z,42.00
2023-02-14T16:37:23.691Z,41.80
2023-02-14T16:39:52.959Z,41.60
2023-02-14T16:42:20.020Z,41.60
2023-02-14T16:44:47.879Z,41.50
2023-02-14T16:47:15.926Z,41.50
2023-02-14T16:49:42.665Z,41.30
2023-02-14T16:52:18.254Z,41.30
2023-02-14T16:54:45.066Z,41.30
2023-02-14T16:57:27.438Z,41.30
2023-02-14T16:59:56.016Z,41.00
2023-02-14T17:02:23.099Z,41.10
2023-02-14T17:04:49.805Z,41.20
2023-02-14T17:07:16.889Z,41.00
2023-02-14T17:09:51.071Z,41.00
2023-02-14T17:12:22.133Z,41.20
2023-02-14T17:14:53.776Z,40.70
2023-02-14T17:17:20.972Z,41.00
2023-02-14T17:19:47.774Z,41.10
2023-02-14T17:22:14.882Z,41.20
2023-02-14T17:24:42.002Z,41.60
2023-02-14T17:27:08.770Z,41.80
2023-02-14T17:29:35.473Z,42.10
2023-02-14T17:32:02.378Z,42.50
2023-02-14T17:34:33.663Z,42.70
2023-02-14T17:37:00.413Z,42.80
2023-02-14T17:39:27.348Z,42.90
2023-02-14T17:41:56.574Z,43.10
2023-02-14T17:44:23.373Z,43.50
2023-02-14T17:46:50.266Z,43.70
2023-02-14T17:49:17.121Z,43.80
2023-02-14T17:51:44.825Z,43.70
2023-02-14T17:54:12.382Z,43.50
2023-02-14T17:56:39.136Z,43.50
2023-02-14T17:59:05.891Z,43.40
2023-02-14T18:01:34.390Z,43.40
2023-02-14T18:04:01.301Z,43.20
2023-02-14T18:06:28.153Z,43.10
2023-02-14T18:08:57.835Z,43.10
2023-02-14T18:11:27.590Z,43.10
2023-02-14T18:13:55.839Z,43.30
2023-02-14T18:16:22.967Z,43.10
2023-02-14T18:18:49.732Z,43.00
2023-02-14T18:21:20.923Z,43.00
2023-02-14T18:23:48.274Z,43.10
2023-02-14T18:26:16.497Z,42.80
2023-02-14T18:28:43.400Z,42.70
2023-02-14T18:31:15.959Z,42.60
2023-02-14T18:33:43.661Z,42.60
2023-02-14T18:36:15.196Z,42.60
2023-02-14T18:38:43.409Z,42.80
2023-02-14T18:41:13.245Z,42.90
2023-02-14T18:43:41.202Z,43.00
2023-02-14T18:46:10.549Z,42.90
2023-02-14T18:48:38.278Z,42.80
2023-02-14T18:51:10.525Z,42.80
2023-02-14T18:53:38.372Z,42.70
2023-02-14T18:56:06.681Z,42.80
2023-02-14T18:58:34.584Z,42.90
2023-02-14T19:01:12.694Z,42.90
2023-02-14T19:03:40.070Z,42.90
2023-02-14T19:06:08.382Z,42.90
2023-02-14T19:08:36.855Z,42.90
2023-02-14T19:11:04.400Z,42.90
2023-02-14T19:13:32.222Z,42.90
2023-02-14T19:15:59.759Z,43.00
2023-02-14T19:18:26.986Z,42.90
2023-02-14T19:20:53.658Z,42.80
2023-02-14T19:23:20.413Z,42.90
2023-02-14T19:25:47.076Z,43.00
2023-02-14T19:28:13.788Z,42.90
2023-02-14T19:30:40.600Z,43.00
2023-02-14T19:33:07.398Z,43.20
2023-02-14T19:35:34.212Z,43.10
2023-02-14T19:38:03.482Z,43.10
2023-02-14T19:40:30.830Z,43.80
2023-02-14T19:42:57.783Z,43.20
2023-02-14T19:45:24.490Z,43.20
2023-02-14T19:47:51.167Z,43.10
2023-02-14T19:50:19.450Z,43.30
2023-02-14T19:52:47.071Z,43.30
2023-02-14T19:55:31.882Z,43.80
2023-02-14T19:57:58.846Z,43.40
2023-02-14T20:00:25.763Z,43.40
2023-02-14T20:02:52.552Z,43.40
2023-02-14T20:05:20.114Z,43.50
2023-02-14T20:07:51.910Z,43.50
2023-02-14T20:10:18.870Z,43.30
2023-02-14T20:12:45.624Z,43.50
2023-02-14T20:15:12.296Z,43.80
2023-02-14T20:17:39.237Z,43.80
2023-02-14T20:20:08.376Z,43.80
2023-02-14T20:22:36.344Z,43.90
2023-02-14T20:25:06.269Z,43.80
2023-02-14T20:27:32.936Z,43.90
2023-02-14T20:29:59.569Z,43.80
2023-02-14T20:32:26.337Z,43.80
2023-02-14T20:34:53.164Z,43.80
2023-02-14T20:37:19.912Z,43.80
2023-02-14T20:39:47.771Z,43.90
2023-02-14T20:42:14.517Z,43.80
2023-02-14T20:44:41.542Z,43.80
2023-02-14T20:47:09.787Z,43.90
2023-02-14T20:49:37.795Z,43.90
2023-02-14T20:52:04.753Z,43.70
2023-02-14T20:54:31.603Z,43.80
2023-02-14T20:56:58.333Z,43.80
2023-02-14T20:59:28.587Z,43.80
2023-02-14T21:01:56.963Z,43.80
2023-02-14T21:04:23.950Z,43.70
2023-02-14T21:06:50.711Z,43.60
2023-02-14T21:09:18.642Z,43.60
2023-02-14T21:11:45.427Z,43.50
2023-02-14T21:14:12.198Z,43.30
2023-02-14T21:16:38.894Z,43.30
2023-02-14T21:19:06.737Z,44.20
2023-02-14T21:21:36.387Z,43.50
2023-02-14T21:24:06.646Z,43.60
2023-02-14T21:26:33.692Z,43.20
2023-02-14T21:29:01.546Z,42.80
2023-02-14T21:31:28.572Z,42.60
2023-02-14T21:33:58.229Z,42.60
2023-02-14T21:36:28.548Z,42.60
2023-02-14T21:38:57.965Z,42.70
2023-02-14T21:41:26.694Z,42.80
2023-02-14T21:43:53.887Z,43.10
2023-02-14T21:46:31.090Z,43.10
2023-02-14T21:49:18.107Z,43.20
2023-02-14T21:51:45.183Z,43.40
2023-02-14T21:54:12.275Z,43.60
2023-02-14T21:56:41.253Z,43.70
2023-02-14T21:59:09.589Z,44.10
2023-02-14T22:01:38.510Z,44.10
2023-02-14T22:04:08.989Z,44.30
2023-02-14T22:06:37.729Z,44.50
2023-02-14T22:09:04.877Z,44.60
2023-02-14T22:11:31.982Z,44.40
2023-02-14T22:14:00.115Z,44.70
2023-02-14T22:16:26.880Z,44.90
2023-02-14T22:18:53.645Z,45.00
2023-02-14T22:21:22.949Z,45.10
2023-02-14T22:23:50.089Z,45.30
2023-02-14T22:26:16.742Z,45.40
2023-02-14T22:28:45.062Z,45.40
2023-02-14T22:31:12.500Z,45.50
2023-02-14T22:33:39.353Z,45.60
2023-02-14T22:36:07.374Z,45.80
2023-02-14T22:38:35.478Z,45.70
2023-02-14T22:41:06.499Z,45.80
2023-02-14T22:43:33.850Z,45.90
2023-02-14T22:46:08.983Z,46.10
2023-02-14T22:48:37.313Z,46.30
2023-02-14T22:51:07.838Z,46.30
2023-02-14T22:53:34.837Z,46.40
2023-02-14T22:56:27.763Z,46.40
2023-02-14T22:58:59.321Z,46.60
2023-02-14T23:01:26.716Z,46.40
2023-02-14T23:03:55.769Z,46.60
2023-02-14T23:06:23.874Z,46.70
2023-02-14T23:08:50.602Z,46.70
2023-02-14T23:11:20.531Z,46.70
2023-02-14T23:14:06.014Z,46.70
2023-02-14T23:16:51.459Z,46.70
2023-02-14T23:19:48.048Z,46.80
2023-02-14T23:22:19.702Z,47.00
2023-02-14T23:24:51.410Z,46.70
2023-02-14T23:27:25.478Z,46.90
2023-02-14T23:29:53.244Z,47.00
2023-02-14T23:32:19.906Z,47.00
2023-02-14T23:34:46.948Z,47.00
2023-02-14T23:37:13.886Z,47.10
2023-02-14T23:39:41.447Z,47.20
2023-02-14T23:42:17.386Z,47.30
2023-02-14T23:44:45.014Z,47.90
2023-02-14T23:47:12.767Z,47.30
2023-02-14T23:49:40.648Z,47.30
2023-02-14T23:52:10.997Z,47.30
2023-02-14T23:54:38.524Z,47.30
2023-02-14T23:57:07.326Z,47.30
2023-02-14T23:59:34.139Z,47.40
